createdAt,value
2018-10-09T00:01:33.679Z,14.00
2018-10-09T00:04:01.129Z,14.00
2018-10-09T00:06:28.581Z,14.00
2018-10-09T00:08:56.263Z,14.00
2018-10-09T00:11:23.967Z,14.00
2018-10-09T00:13:51.551Z,14.00
2018-10-09T00:16:18.987Z,14.00
2018-10-09T00:18:46.498Z,14.00
2018-10-09T00:21:14.044Z,14.00
2018-10-09T00:23:41.836Z,14.00
2018-10-09T00:26:09.534Z,13.80
2018-10-09T00:28:37.000Z,14.00
2018-10-09T00:31:04.644Z,14.00
2018-10-09T00:33:32.064Z,14.00
2018-10-09T00:35:59.482Z,14.00
2018-10-09T00:38:26.926Z,14.00
2018-10-09T00:40:54.611Z,13.90
2018-10-09T00:43:22.110Z,14.00
2018-10-09T00:45:49.494Z,14.00
2018-10-09T00:48:17.040Z,13.90
2018-10-09T00:50:45.017Z,13.80
2018-10-09T00:53:12.519Z,13.90
2018-10-09T00:55:40.121Z,13.90
2018-10-09T00:58:08.074Z,13.90
2018-10-09T01:00:36.172Z,13.90
2018-10-09T01:03:03.632Z,13.90
2018-10-09T01:05:31.055Z,13.90
2018-10-09T01:07:58.630Z,13.90
2018-10-09T01:10:26.215Z,13.90
2018-10-09T01:12:53.699Z,13.90
2018-10-09T01:15:21.145Z,13.90
2018-10-09T01:17:48.646Z,13.90
2018-10-09T01:20:20.679Z,13.80
2018-10-09T01:22:48.156Z,13.80
2018-10-09T01:25:15.571Z,13.80
2018-10-09T01:27:43.132Z,13.80
2018-10-09T01:30:10.737Z,13.80
2018-10-09T01:32:38.346Z,13.80
2018-10-09T01:35:07.331Z,13.80
2018-10-09T01:37:34.951Z,13.70
2018-10-09T01:40:02.524Z,13.70
2018-10-09T01:42:30.415Z,13.70
2018-10-09T01:44:58.740Z,13.70
2018-10-09T01:47:26.458Z,13.70
2018-10-09T01:49:53.904Z,13.70
2018-10-09T01:52:21.558Z,13.60
2018-10-09T01:54:49.011Z,13.60
2018-10-09T01:57:16.485Z,13.70
2018-10-09T01:59:44.582Z,13.60
2018-10-09T02:02:12.074Z,13.60
2018-10-09T02:04:39.691Z,13.60
2018-10-09T02:07:07.608Z,13.50
2018-10-09T02:09:35.265Z,13.50
2018-10-09T02:12:02.832Z,13.50
2018-10-09T02:14:30.356Z,13.50
2018-10-09T02:16:57.943Z,13.50
2018-10-09T02:19:25.466Z,13.50
2018-10-09T02:21:53.031Z,13.50
2018-10-09T02:24:20.390Z,13.50
2018-10-09T02:26:47.914Z,13.40
2018-10-09T02:29:15.395Z,13.40
2018-10-09T02:31:43.040Z,13.50
2018-10-09T02:34:10.843Z,13.40
2018-10-09T02:36:38.576Z,13.40
2018-10-09T02:39:08.200Z,13.40
2018-10-09T02:41:36.406Z,13.40
2018-10-09T02:44:04.502Z,13.40
2018-10-09T02:46:32.035Z,13.40
2018-10-09T02:48:59.743Z,13.40
2018-10-09T02:51:27.279Z,13.40
2018-10-09T02:53:54.806Z,13.40
2018-10-09T02:56:22.310Z,13.40
2018-10-09T02:58:49.913Z,13.40
2018-10-09T03:01:17.411Z,13.40
2018-10-09T03:03:44.833Z,13.40
2018-10-09T03:06:12.328Z,13.30
2018-10-09T03:08:39.971Z,13.40
2018-10-09T03:11:07.931Z,13.30
2018-10-09T03:13:35.704Z,13.30
2018-10-09T03:16:03.261Z,13.30
2018-10-09T03:18:30.796Z,13.30
2018-10-09T03:20:58.236Z,13.30
2018-10-09T03:23:25.674Z,13.30
2018-10-09T03:25:53.318Z,13.30
2018-10-09T03:28:20.803Z,13.30
2018-10-09T03:30:48.366Z,13.30
2018-10-09T03:33:15.921Z,13.20
2018-10-09T03:35:43.379Z,13.20
2018-10-09T03:38:10.870Z,13.20
2018-10-09T03:40:38.545Z,13.20
2018-10-09T03:43:06.352Z,13.20
2018-10-09T03:45:33.796Z,13.20
2018-10-09T03:48:01.451Z,13.20
2018-10-09T03:50:28.928Z,13.20
2018-10-09T03:52:56.640Z,13.20
2018-10-09T03:55:24.991Z,13.10
2018-10-09T03:57:52.445Z,13.10
2018-10-09T04:00:20.117Z,13.30
2018-10-09T04:02:47.549Z,13.10
2018-10-09T04:05:15.664Z,13.10
2018-10-09T04:07:43.797Z,13.10
2018-10-09T04:10:11.891Z,13.10
2018-10-09T04:12:39.884Z,13.10
2018-10-09T04:15:07.497Z,13.00
2018-10-09T04:17:35.534Z,13.00
2018-10-09T04:20:04.001Z,13.00
2018-10-09T04:22:32.439Z,13.00
2018-10-09T04:25:00.255Z,13.00
2018-10-09T04:27:27.749Z,12.90
2018-10-09T04:29:55.236Z,12.90
2018-10-09T04:32:22.759Z,12.90
2018-10-09T04:34:50.361Z,12.90
2018-10-09T04:37:17.834Z,12.90
2018-10-09T04:39:45.839Z,12.90
2018-10-09T04:42:13.308Z,12.90
2018-10-09T04:44:40.783Z,13.10
2018-10-09T04:47:08.345Z,12.80
2018-10-09T04:49:35.928Z,12.80
2018-10-09T04:52:03.600Z,12.80
2018-10-09T04:54:31.087Z,12.80
2018-10-09T04:56:58.781Z,13.10
2018-10-09T04:59:26.584Z,12.80
2018-10-09T05:01:54.122Z,12.80
2018-10-09T05:04:21.548Z,12.80
2018-10-09T05:06:49.177Z,12.80
2018-10-09T05:09:16.766Z,12.70
2018-10-09T05:11:44.792Z,12.70
2018-10-09T05:14:12.472Z,12.70
2018-10-09T05:16:40.154Z,12.80
2018-10-09T05:19:07.697Z,12.70
2018-10-09T05:21:35.588Z,12.70
2018-10-09T05:24:03.167Z,12.70
2018-10-09T05:26:31.043Z,12.60
2018-10-09T05:28:58.642Z,12.60
2018-10-09T05:31:26.196Z,12.60
2018-10-09T05:33:53.711Z,12.70
2018-10-09T05:36:21.248Z,12.70
2018-10-09T05:38:49.104Z,12.70
2018-10-09T05:41:17.169Z,12.60
2018-10-09T05:43:45.042Z,12.60
2018-10-09T05:46:12.640Z,12.60
2018-10-09T05:48:40.038Z,12.60
2018-10-09T05:51:08.192Z,12.60
2018-10-09T05:53:35.907Z,12.60
2018-10-09T05:56:03.540Z,12.60
2018-10-09T05:58:31.315Z,12.60
2018-10-09T06:00:59.141Z,12.50
2018-10-09T06:03:26.682Z,12.50
2018-10-09T06:05:54.320Z,12.50
2018-10-09T06:08:21.872Z,12.50
2018-10-09T06:10:50.222Z,12.50
2018-10-09T06:13:17.920Z,12.50
2018-10-09T06:15:45.506Z,12.50
2018-10-09T06:18:13.290Z,12.50
2018-10-09T06:20:41.064Z,12.50
2018-10-09T06:23:09.455Z,12.50
2018-10-09T06:25:37.035Z,12.50
2018-10-09T06:28:06.128Z,12.50
2018-10-09T06:30:33.727Z,12.50
2018-10-09T06:33:01.332Z,12.50
2018-10-09T06:35:28.868Z,12.50
2018-10-09T06:37:56.936Z,12.50
2018-10-09T06:40:25.285Z,12.50
2018-10-09T06:42:52.924Z,12.50
2018-10-09T06:45:20.395Z,12.50
2018-10-09T06:47:48.986Z,12.50
2018-10-09T06:50:17.611Z,12.50
2018-10-09T06:52:45.726Z,12.60
2018-10-09T06:55:13.676Z,12.50
2018-10-09T06:57:41.678Z,12.60
2018-10-09T07:00:09.608Z,12.50
2018-10-09T07:02:37.628Z,12.60
2018-10-09T07:05:05.267Z,12.60
2018-10-09T07:07:32.777Z,12.60
2018-10-09T07:10:00.275Z,12.70
2018-10-09T07:12:27.709Z,12.70
2018-10-09T07:14:55.418Z,12.70
2018-10-09T07:17:22.912Z,12.80
2018-10-09T07:19:50.512Z,12.80
2018-10-09T07:22:18.001Z,12.80
2018-10-09T07:24:45.688Z,12.90
2018-10-09T07:27:14.476Z,12.90
2018-10-09T07:29:42.193Z,12.90
2018-10-09T07:32:09.796Z,12.90
2018-10-09T07:34:37.304Z,13.00
2018-10-09T07:37:05.218Z,13.00
2018-10-09T07:39:32.684Z,13.00
2018-10-09T07:42:00.269Z,13.10
2018-10-09T07:44:27.695Z,13.10
2018-10-09T07:46:55.167Z,13.10
2018-10-09T07:49:22.705Z,13.10
2018-10-09T07:51:50.281Z,13.10
2018-10-09T07:54:17.999Z,13.20
2018-10-09T07:56:45.752Z,13.20
2018-10-09T07:59:13.630Z,13.20
2018-10-09T08:01:41.162Z,13.20
2018-10-09T08:04:09.149Z,13.20
2018-10-09T08:06:36.803Z,13.30
2018-10-09T08:09:07.453Z,13.30
2018-10-09T08:11:35.072Z,13.30
2018-10-09T08:14:03.852Z,13.30
2018-10-09T08:16:31.479Z,13.30
2018-10-09T08:18:58.996Z,13.40
2018-10-09T08:21:26.477Z,13.40
2018-10-09T08:23:53.887Z,13.40
2018-10-09T08:26:21.437Z,13.40
2018-10-09T08:28:48.916Z,13.50
2018-10-09T08:31:16.598Z,13.50
2018-10-09T08:33:45.076Z,13.50
2018-10-09T08:36:14.299Z,13.20
2018-10-09T08:38:42.121Z,13.60
2018-10-09T08:41:09.680Z,13.20
2018-10-09T08:43:37.886Z,13.60
2018-10-09T08:46:05.798Z,13.70
2018-10-09T08:48:33.605Z,13.70
2018-10-09T08:51:01.120Z,13.70
2018-10-09T08:53:28.656Z,13.70
2018-10-09T08:55:56.252Z,13.80
2018-10-09T08:58:23.894Z,13.80
2018-10-09T09:00:51.501Z,14.00
2018-10-09T09:03:19.169Z,13.80
2018-10-09T09:05:47.010Z,13.90
2018-10-09T09:08:14.875Z,13.90
2018-10-09T09:10:44.990Z,13.90
2018-10-09T09:13:12.621Z,13.90
2018-10-09T09:15:40.318Z,14.00
2018-10-09T09:18:08.991Z,13.90
2018-10-09T09:20:36.618Z,14.00
2018-10-09T09:23:04.006Z,14.00
2018-10-09T09:25:31.453Z,14.00
2018-10-09T09:27:59.079Z,14.00
2018-10-09T09:30:27.215Z,14.00
2018-10-09T09:32:54.740Z,14.10
2018-10-09T09:35:22.176Z,14.10
2018-10-09T09:37:51.280Z,14.10
2018-10-09T09:40:19.417Z,14.10
2018-10-09T09:42:47.130Z,14.20
2018-10-09T09:45:14.843Z,14.20
2018-10-09T09:47:42.462Z,14.20
2018-10-09T09:50:09.861Z,14.30
2018-10-09T09:52:37.614Z,14.30
2018-10-09T09:55:05.197Z,14.30
2018-10-09T09:57:32.675Z,14.40
2018-10-09T10:00:00.196Z,14.40
2018-10-09T10:02:28.002Z,14.50
2018-10-09T10:04:55.555Z,14.50
2018-10-09T10:07:23.419Z,14.50
2018-10-09T10:09:50.984Z,14.60
2018-10-09T10:12:18.825Z,14.60
2018-10-09T10:14:46.805Z,14.70
2018-10-09T10:17:14.608Z,14.70
2018-10-09T10:19:42.381Z,14.70
2018-10-09T10:22:10.185Z,14.70
2018-10-09T10:24:37.848Z,14.80
2018-10-09T10:27:05.816Z,14.80
2018-10-09T10:29:33.247Z,14.80
2018-10-09T10:32:00.742Z,14.80
2018-10-09T10:34:28.240Z,14.90
2018-10-09T10:36:55.845Z,14.90
2018-10-09T10:39:24.915Z,14.90
2018-10-09T10:41:52.869Z,14.90
2018-10-09T10:44:20.836Z,15.00
2018-10-09T10:46:48.424Z,14.90
2018-10-09T10:49:16.253Z,15.00
2018-10-09T10:51:44.045Z,15.00
2018-10-09T10:54:11.781Z,15.00
2018-10-09T10:56:39.735Z,15.00
2018-10-09T10:59:07.243Z,15.00
2018-10-09T11:01:34.878Z,15.00
2018-10-09T11:04:02.505Z,14.90
2018-10-09T11:06:30.021Z,15.00
2018-10-09T11:08:57.678Z,15.00
2018-10-09T11:11:25.108Z,15.00
2018-10-09T11:13:52.725Z,15.00
2018-10-09T11:16:20.435Z,15.00
2018-10-09T11:18:48.341Z,15.00
2018-10-09T11:21:16.094Z,15.00
2018-10-09T11:23:43.597Z,15.10
2018-10-09T11:26:11.408Z,15.10
2018-10-09T11:28:39.012Z,15.10
2018-10-09T11:31:07.092Z,15.10
2018-10-09T11:33:34.624Z,15.20
2018-10-09T11:36:02.097Z,15.30
2018-10-09T11:38:29.653Z,15.20
2018-10-09T11:40:57.046Z,15.20
2018-10-09T11:43:24.644Z,15.30
2018-10-09T11:45:52.340Z,15.30
2018-10-09T11:48:19.951Z,15.30
2018-10-09T11:50:47.840Z,15.40
2018-10-09T11:53:16.154Z,15.40
2018-10-09T11:55:43.953Z,15.50
2018-10-09T11:58:11.574Z,15.50
2018-10-09T12:00:40.615Z,15.50
2018-10-09T12:03:08.245Z,15.60
2018-10-09T12:05:36.424Z,15.60
2018-10-09T12:08:04.341Z,15.70
2018-10-09T12:10:32.043Z,15.70
2018-10-09T12:12:59.828Z,15.80
2018-10-09T12:15:27.683Z,15.80
2018-10-09T12:17:55.469Z,15.80
2018-10-09T12:20:23.137Z,15.90
2018-10-09T12:22:50.791Z,15.90
2018-10-09T12:25:18.907Z,16.00
2018-10-09T12:27:46.660Z,16.00
2018-10-09T12:30:14.538Z,16.10
2018-10-09T12:32:42.115Z,16.10
2018-10-09T12:35:10.136Z,16.20
2018-10-09T12:37:37.805Z,16.20
2018-10-09T12:40:06.292Z,16.30
2018-10-09T12:42:33.814Z,16.30
2018-10-09T12:45:01.328Z,16.40
2018-10-09T12:47:28.979Z,16.40
2018-10-09T12:49:56.728Z,16.50
2018-10-09T12:52:24.335Z,16.80
2018-10-09T12:54:52.291Z,16.60
2018-10-09T12:57:20.201Z,16.70
2018-10-09T12:59:47.877Z,16.80
2018-10-09T13:02:16.190Z,16.80
2018-10-09T13:04:43.779Z,16.90
2018-10-09T13:07:11.410Z,16.90
2018-10-09T13:09:39.163Z,17.00
2018-10-09T13:12:06.621Z,17.00
2018-10-09T13:14:34.179Z,17.00
2018-10-09T13:17:01.745Z,17.10
2018-10-09T13:19:40.803Z,17.10
2018-10-09T13:22:26.007Z,17.20
2018-10-09T13:24:53.371Z,17.20
2018-10-09T13:27:21.047Z,17.30
2018-10-09T13:29:48.760Z,17.30
2018-10-09T13:32:16.442Z,17.40
2018-10-09T13:34:44.023Z,17.40
2018-10-09T13:37:11.642Z,17.40
2018-10-09T13:39:39.481Z,17.50
2018-10-09T13:42:07.169Z,17.50
2018-10-09T13:44:34.863Z,17.50
2018-10-09T13:47:02.507Z,17.50
2018-10-09T13:49:30.053Z,17.60
2018-10-09T13:51:57.588Z,17.60
2018-10-09T13:54:25.416Z,17.60
2018-10-09T13:56:53.072Z,17.60
2018-10-09T13:59:20.707Z,17.70
2018-10-09T14:01:48.453Z,17.70
2018-10-09T14:04:16.170Z,17.70
2018-10-09T14:06:43.840Z,17.70
2018-10-09T14:09:11.835Z,17.80
2018-10-09T14:11:39.670Z,17.80
2018-10-09T14:14:07.530Z,17.90
2018-10-09T14:16:37.077Z,17.90
2018-10-09T14:19:18.358Z,17.90
2018-10-09T14:21:46.557Z,17.90
2018-10-09T14:24:14.453Z,18.00
2018-10-09T14:26:42.201Z,18.00
2018-10-09T14:29:10.286Z,18.00
2018-10-09T14:31:37.945Z,18.00
2018-10-09T14:34:06.353Z,18.10
2018-10-09T14:36:34.819Z,18.10
2018-10-09T14:39:02.697Z,18.20
2018-10-09T14:41:30.768Z,18.20
2018-10-09T14:43:58.392Z,18.20
2018-10-09T14:46:26.589Z,18.30
2018-10-09T14:48:54.235Z,18.30
2018-10-09T14:51:22.929Z,18.60
2018-10-09T14:53:51.205Z,18.40
2018-10-09T14:56:18.992Z,18.40
2018-10-09T14:58:46.946Z,18.50
2018-10-09T15:01:14.919Z,18.50
2018-10-09T15:03:42.881Z,18.60
2018-10-09T15:06:10.705Z,18.60
2018-10-09T15:08:38.421Z,18.60
2018-10-09T15:11:06.458Z,18.60
2018-10-09T15:13:34.371Z,18.70
2018-10-09T15:16:02.123Z,18.70
2018-10-09T15:18:30.279Z,18.70
2018-10-09T15:20:58.655Z,18.70
2018-10-09T15:23:26.958Z,18.70
2018-10-09T15:25:54.963Z,18.70
2018-10-09T15:28:23.177Z,18.70
2018-10-09T15:30:51.113Z,18.70
2018-10-09T15:33:19.210Z,18.70
2018-10-09T15:35:47.180Z,18.70
2018-10-09T15:38:15.244Z,18.70
2018-10-09T15:40:44.269Z,18.70
2018-10-09T15:43:12.552Z,18.60
2018-10-09T15:45:40.428Z,18.60
2018-10-09T15:48:08.260Z,18.60
2018-10-09T15:50:36.171Z,18.50
2018-10-09T15:53:04.459Z,18.50
2018-10-09T15:55:32.129Z,18.50
2018-10-09T15:58:00.045Z,18.40
2018-10-09T16:00:32.464Z,18.40
2018-10-09T16:03:00.366Z,18.40
2018-10-09T16:05:28.316Z,18.40
2018-10-09T16:07:56.395Z,18.40
2018-10-09T16:10:24.702Z,18.40
2018-10-09T16:12:52.605Z,18.30
2018-10-09T16:15:20.873Z,18.30
2018-10-09T16:17:49.300Z,18.30
2018-10-09T16:20:17.423Z,18.30
2018-10-09T16:22:46.728Z,18.30
2018-10-09T16:25:16.140Z,18.20
2018-10-09T16:27:46.292Z,18.20
2018-10-09T16:30:15.290Z,18.20
2018-10-09T16:32:43.486Z,18.20
2018-10-09T16:35:11.001Z,18.10
2018-10-09T16:37:38.903Z,18.10
2018-10-09T16:40:06.660Z,18.10
2018-10-09T16:42:34.313Z,18.10
2018-10-09T16:45:01.973Z,18.30
2018-10-09T16:47:29.842Z,18.00
2018-10-09T16:49:57.738Z,18.00
2018-10-09T16:52:25.950Z,18.00
2018-10-09T16:54:54.015Z,18.00
2018-10-09T16:57:22.381Z,18.00
2018-10-09T16:59:50.753Z,17.90
2018-10-09T17:02:19.903Z,17.90
2018-10-09T17:04:48.249Z,17.90
2018-10-09T17:07:23.260Z,17.80
2018-10-09T17:09:51.461Z,17.80
2018-10-09T17:12:19.717Z,17.80
2018-10-09T17:14:48.267Z,17.80
2018-10-09T17:17:16.428Z,17.80
2018-10-09T17:19:44.037Z,17.70
2018-10-09T17:22:11.686Z,17.70
2018-10-09T17:24:39.177Z,17.70
2018-10-09T17:27:06.577Z,17.70
2018-10-09T17:29:34.036Z,17.70
2018-10-09T17:32:01.519Z,17.60
2018-10-09T17:34:28.921Z,17.60
2018-10-09T17:36:56.373Z,17.90
2018-10-09T17:39:23.894Z,17.60
2018-10-09T17:41:51.487Z,17.60
2018-10-09T17:44:20.019Z,17.50
2018-10-09T17:46:47.887Z,17.50
2018-10-09T17:49:16.150Z,17.50
2018-10-09T17:51:44.089Z,17.50
2018-10-09T17:54:12.163Z,17.40
2018-10-09T17:56:40.125Z,17.40
2018-10-09T17:59:08.160Z,17.40
2018-10-09T18:01:35.765Z,17.40
2018-10-09T18:04:03.469Z,17.40
2018-10-09T18:06:31.301Z,17.40
2018-10-09T18:08:59.078Z,17.40
2018-10-09T18:11:26.502Z,17.40
2018-10-09T18:13:54.057Z,17.30
2018-10-09T18:16:21.759Z,17.40
2018-10-09T18:18:49.462Z,17.30
2018-10-09T18:21:17.732Z,17.30
2018-10-09T18:23:45.738Z,17.30
2018-10-09T18:26:14.156Z,17.30
2018-10-09T18:28:41.929Z,17.20
2018-10-09T18:31:09.614Z,17.30
2018-10-09T18:33:37.186Z,17.30
2018-10-09T18:36:05.021Z,17.20
2018-10-09T18:38:32.589Z,17.20
2018-10-09T18:41:00.189Z,17.20
2018-10-09T18:43:27.669Z,17.20
2018-10-09T18:46:01.188Z,17.20
2018-10-09T18:48:28.712Z,17.10
2018-10-09T18:50:56.142Z,17.20
2018-10-09T18:53:23.856Z,17.10
2018-10-09T18:55:52.552Z,17.10
2018-10-09T18:58:20.221Z,17.10
2018-10-09T19:00:48.830Z,17.10
2018-10-09T19:03:16.649Z,17.10
2018-10-09T19:05:45.217Z,17.10
2018-10-09T19:08:13.244Z,17.10
2018-10-09T19:10:42.223Z,17.00
2018-10-09T19:13:49.264Z,17.00
2018-10-09T19:16:29.342Z,17.00
2018-10-09T19:18:57.106Z,17.00
2018-10-09T19:21:24.606Z,17.00
2018-10-09T19:23:52.352Z,17.00
2018-10-09T19:26:19.791Z,17.00
2018-10-09T19:28:47.397Z,17.00
2018-10-09T19:31:14.971Z,17.00
2018-10-09T19:33:42.577Z,17.00
2018-10-09T19:36:10.317Z,16.90
2018-10-09T19:38:37.778Z,16.90
2018-10-09T19:41:05.707Z,16.90
2018-10-09T19:43:33.416Z,16.90
2018-10-09T19:46:01.231Z,16.80
2018-10-09T19:48:29.088Z,16.80
2018-10-09T19:50:57.208Z,16.80
2018-10-09T19:53:25.109Z,16.80
2018-10-09T19:55:53.115Z,16.80
2018-10-09T19:58:21.074Z,16.80
2018-10-09T20:00:49.041Z,16.80
2018-10-09T20:03:16.901Z,16.80
2018-10-09T20:05:44.447Z,16.80
2018-10-09T20:08:12.231Z,16.70
2018-10-09T20:10:39.776Z,16.70
2018-10-09T20:13:07.677Z,16.70
2018-10-09T20:15:35.555Z,16.70
2018-10-09T20:18:05.049Z,16.70
2018-10-09T20:20:32.908Z,16.70
2018-10-09T20:23:01.138Z,16.70
2018-10-09T20:25:28.664Z,16.70
2018-10-09T20:27:56.529Z,16.60
2018-10-09T20:30:24.018Z,16.60
2018-10-09T20:32:51.892Z,16.90
2018-10-09T20:35:19.400Z,16.60
2018-10-09T20:37:47.227Z,16.60
2018-10-09T20:40:14.626Z,16.50
2018-10-09T20:54:36.595Z,16.50
